EDDE

Erfurt Airport

Erfurt, Germany
METAR EDDE 241150Z 07014KT 9999 BKN023 M03/M08 Q1025 TEMPO 07015G25KT
Observed Flight Rules
Feb-24 @ 11:50 UTC (30 minutes ago) Marginal Visual Flight Rules
Wind Visibility Clouds
70° at 14 knots 10,000+ meters
  • Broken at 2,300' AGL
Temperatures Readings
Current -3°C / 27°F
Dewpoint -8°C / 18°F
Humidity 69%
Altimeter 30.27" Hg
Pressure 1025 hPa
Elevation 323
METAR EDDE 241150Z 07014KT 9999 BKN023 M03/M08 Q1025 TEMPO 07015G25KT
Observed Flight Rules
Feb-24 @ 11:50 UTC
(30 minutes ago)
MVFR
Wind Visibility
70° at 14 knots 10,000+ meters
Clouds
  • Broken at 2,300' AGL
Temperature Dewpoint
-3°C / 27°F -8°C / 18°F
Humidity Altimeter Pressure
69% 30.27" Hg 1025 hPa